sensor_id;sensor_type;location;lat;lon;timestamp;temperature;humidity
55173;DHT22;41061;52.822;6.860;2023-05-10T00:01:13;14.40;99.90
55173;DHT22;41061;52.822;6.860;2023-05-10T00:03:39;14.20;99.90
55173;DHT22;41061;52.822;6.860;2023-05-10T00:06:05;14.20;99.90
55173;DHT22;41061;52.822;6.860;2023-05-10T00:08:31;14.40;99.90
55173;DHT22;41061;52.822;6.860;2023-05-10T00:10:57;14.20;99.90
55173;DHT22;41061;52.822;6.860;2023-05-10T00:13:22;14.00;99.90
55173;DHT22;41061;52.822;6.860;2023-05-10T00:15:48;14.00;99.90
55173;DHT22;41061;52.822;6.860;2023-05-10T00:18:14;14.00;99.90
55173;DHT22;41061;52.822;6.860;2023-05-10T00:20:39;14.00;99.90
55173;DHT22;41061;52.822;6.860;2023-05-10T00:23:05;14.00;99.90
55173;DHT22;41061;52.822;6.860;2023-05-10T00:25:31;14.00;99.90
55173;DHT22;41061;52.822;6.860;2023-05-10T00:27:57;14.00;99.90
55173;DHT22;41061;52.822;6.860;2023-05-10T00:30:23;13.90;99.90
55173;DHT22;41061;52.822;6.860;2023-05-10T00:32:49;13.90;99.90
55173;DHT22;41061;52.822;6.860;2023-05-10T00:35:15;13.80;99.90
55173;DHT22;41061;52.822;6.860;2023-05-10T00:37:41;13.80;99.90
55173;DHT22;41061;52.822;6.860;2023-05-10T00:40:08;13.80;99.90
55173;DHT22;41061;52.822;6.860;2023-05-10T00:42:34;13.70;99.90
55173;DHT22;41061;52.822;6.860;2023-05-10T00:44:59;13.70;99.90
55173;DHT22;41061;52.822;6.860;2023-05-10T00:47:25;13.60;99.90
55173;DHT22;41061;52.822;6.860;2023-05-10T00:49:51;13.70;99.90
55173;DHT22;41061;52.822;6.860;2023-05-10T00:52:17;13.50;99.90
55173;DHT22;41061;52.822;6.860;2023-05-10T00:54:43;13.50;99.90
55173;DHT22;41061;52.822;6.860;2023-05-10T00:57:09;13.50;99.90
55173;DHT22;41061;52.822;6.860;2023-05-10T00:59:34;13.50;99.90
55173;DHT22;41061;52.822;6.860;2023-05-10T01:02:00;13.40;99.90
55173;DHT22;41061;52.822;6.860;2023-05-10T01:04:26;13.50;99.90
55173;DHT22;41061;52.822;6.860;2023-05-10T01:06:54;13.40;99.90
55173;DHT22;41061;52.822;6.860;2023-05-10T01:09:20;13.50;99.90
55173;DHT22;41061;52.822;6.860;2023-05-10T01:11:47;13.50;99.90
55173;DHT22;41061;52.822;6.860;2023-05-10T01:14:15;13.50;99.90
55173;DHT22;41061;52.822;6.860;2023-05-10T01:16:44;13.40;99.90
55173;DHT22;41061;52.822;6.860;2023-05-10T01:19:31;13.40;99.90
55173;DHT22;41061;52.822;6.860;2023-05-10T01:22:25;13.50;99.90
55173;DHT22;41061;52.822;6.860;2023-05-10T01:30:31;13.30;99.90
55173;DHT22;41061;52.822;6.860;2023-05-10T01:46:35;13.40;99.90
55173;DHT22;41061;52.822;6.860;2023-05-10T01:49:08;13.40;99.90
55173;DHT22;41061;52.822;6.860;2023-05-10T01:51:57;13.30;99.90
55173;DHT22;41061;52.822;6.860;2023-05-10T01:54:24;13.30;99.90
55173;DHT22;41061;52.822;6.860;2023-05-10T01:56:57;13.30;99.90
55173;DHT22;41061;52.822;6.860;2023-05-10T01:59:29;13.40;99.90
55173;DHT22;41061;52.822;6.860;2023-05-10T02:01:58;13.40;99.90
55173;DHT22;41061;52.822;6.860;2023-05-10T02:04:25;13.30;99.90
55173;DHT22;41061;52.822;6.860;2023-05-10T02:06:53;13.30;99.90
55173;DHT22;41061;52.822;6.860;2023-05-10T02:09:20;13.20;99.90
55173;DHT22;41061;52.822;6.860;2023-05-10T02:11:48;13.20;99.90
55173;DHT22;41061;52.822;6.860;2023-05-10T02:14:15;13.40;99.90
55173;DHT22;41061;52.822;6.860;2023-05-10T02:16:43;13.20;99.90
55173;DHT22;41061;52.822;6.860;2023-05-10T02:19:10;13.30;99.90
55173;DHT22;41061;52.822;6.860;2023-05-10T02:21:39;13.20;99.90
55173;DHT22;41061;52.822;6.860;2023-05-10T02:24:06;13.20;99.90
55173;DHT22;41061;52.822;6.860;2023-05-10T02:26:33;13.20;99.90
55173;DHT22;41061;52.822;6.860;2023-05-10T02:29:02;13.10;99.90
55173;DHT22;41061;52.822;6.860;2023-05-10T02:31:30;13.10;99.90
55173;DHT22;41061;52.822;6.860;2023-05-10T02:33:58;13.10;99.90
55173;DHT22;41061;52.822;6.860;2023-05-10T02:36:25;13.10;99.90
55173;DHT22;41061;52.822;6.860;2023-05-10T02:38:53;13.00;99.90
55173;DHT22;41061;52.822;6.860;2023-05-10T02:41:20;13.00;99.90
55173;DHT22;41061;52.822;6.860;2023-05-10T02:43:50;13.00;99.90
55173;DHT22;41061;52.822;6.860;2023-05-10T02:46:17;13.00;99.90
55173;DHT22;41061;52.822;6.860;2023-05-10T02:48:43;13.00;99.90
55173;DHT22;41061;52.822;6.860;2023-05-10T02:51:09;13.00;99.90
55173;DHT22;41061;52.822;6.860;2023-05-10T02:53:39;12.90;99.90
55173;DHT22;41061;52.822;6.860;2023-05-10T02:56:13;12.90;99.90
55173;DHT22;41061;52.822;6.860;2023-05-10T02:58:40;12.90;99.90
55173;DHT22;41061;52.822;6.860;2023-05-10T03:01:05;13.00;99.90
55173;DHT22;41061;52.822;6.860;2023-05-10T03:03:33;13.00;99.90
55173;DHT22;41061;52.822;6.860;2023-05-10T03:05:58;12.90;99.90
55173;DHT22;41061;52.822;6.860;2023-05-10T03:08:24;12.90;99.90
55173;DHT22;41061;52.822;6.860;2023-05-10T03:16:33;12.90;99.90
55173;DHT22;41061;52.822;6.860;2023-05-10T03:22:13;12.90;99.90
55173;DHT22;41061;52.822;6.860;2023-05-10T03:24:43;12.90;99.90
55173;DHT22;41061;52.822;6.860;2023-05-10T03:27:10;12.90;99.90
55173;DHT22;41061;52.822;6.860;2023-05-10T03:29:37;12.80;99.90
55173;DHT22;41061;52.822;6.860;2023-05-10T03:32:04;12.80;99.90
55173;DHT22;41061;52.822;6.860;2023-05-10T03:34:30;12.90;99.90
55173;DHT22;41061;52.822;6.860;2023-05-10T03:36:57;12.90;99.90
55173;DHT22;41061;52.822;6.860;2023-05-10T03:39:22;12.90;99.90
55173;DHT22;41061;52.822;6.860;2023-05-10T03:41:48;12.90;99.90
55173;DHT22;41061;52.822;6.860;2023-05-10T03:44:14;12.80;99.90
55173;DHT22;41061;52.822;6.860;2023-05-10T03:46:40;12.80;99.90
55173;DHT22;41061;52.822;6.860;2023-05-10T03:49:05;12.90;99.90
55173;DHT22;41061;52.822;6.860;2023-05-10T03:51:31;12.90;99.90
55173;DHT22;41061;52.822;6.860;2023-05-10T03:53:57;12.90;99.90
55173;DHT22;41061;52.822;6.860;2023-05-10T03:56:22;12.90;99.90
55173;DHT22;41061;52.822;6.860;2023-05-10T03:58:48;12.80;99.90
55173;DHT22;41061;52.822;6.860;2023-05-10T04:01:14;12.90;99.90
55173;DHT22;41061;52.822;6.860;2023-05-10T04:03:40;12.90;99.90
55173;DHT22;41061;52.822;6.860;2023-05-10T04:06:06;13.00;99.90
55173;DHT22;41061;52.822;6.860;2023-05-10T04:08:35;12.90;99.90
55173;DHT22;41061;52.822;6.860;2023-05-10T04:11:07;13.00;99.90
55173;DHT22;41061;52.822;6.860;2023-05-10T04:13:33;12.90;99.90
55173;DHT22;41061;52.822;6.860;2023-05-10T04:15:59;12.90;99.90
55173;DHT22;41061;52.822;6.860;2023-05-10T04:18:25;12.90;99.90
55173;DHT22;41061;52.822;6.860;2023-05-10T04:20:50;12.80;99.90
55173;DHT22;41061;52.822;6.860;2023-05-10T04:23:16;12.90;99.90
55173;DHT22;41061;52.822;6.860;2023-05-10T04:25:42;12.80;99.90
55173;DHT22;41061;52.822;6.860;2023-05-10T04:28:08;12.90;99.90
55173;DHT22;41061;52.822;6.860;2023-05-10T04:30:35;12.80;99.90
55173;DHT22;41061;52.822;6.860;2023-05-10T04:33:01;12.80;99.90
55173;DHT22;41061;52.822;6.860;2023-05-10T04:35:29;12.80;99.90
55173;DHT22;41061;52.822;6.860;2023-05-10T04:37:55;12.90;99.90
55173;DHT22;41061;52.822;6.860;2023-05-10T04:40:21;12.90;99.90
55173;DHT22;41061;52.822;6.860;2023-05-10T04:42:46;12.80;99.90
55173;DHT22;41061;52.822;6.860;2023-05-10T04:45:12;12.90;99.90
55173;DHT22;41061;52.822;6.860;2023-05-10T04:47:40;13.00;99.90
55173;DHT22;41061;52.822;6.860;2023-05-10T04:50:06;12.90;99.90
55173;DHT22;41061;52.822;6.860;2023-05-10T04:52:33;12.80;99.90
55173;DHT22;41061;52.822;6.860;2023-05-10T04:54:58;12.80;99.90
55173;DHT22;41061;52.822;6.860;2023-05-10T04:57:24;12.90;99.90
55173;DHT22;41061;52.822;6.860;2023-05-10T04:59:50;12.90;99.90
55173;DHT22;41061;52.822;6.860;2023-05-10T05:02:16;12.90;99.90
55173;DHT22;41061;52.822;6.860;2023-05-10T05:04:42;12.90;99.90
55173;DHT22;41061;52.822;6.860;2023-05-10T05:07:07;13.10;99.90
55173;DHT22;41061;52.822;6.860;2023-05-10T05:09:33;12.90;99.90
55173;DHT22;41061;52.822;6.860;2023-05-10T05:11:59;13.00;99.90
55173;DHT22;41061;52.822;6.860;2023-05-10T05:14:25;13.00;99.90
55173;DHT22;41061;52.822;6.860;2023-05-10T05:16:53;12.90;99.90
55173;DHT22;41061;52.822;6.860;2023-05-10T05:19:19;12.90;99.90
55173;DHT22;41061;52.822;6.860;2023-05-10T05:21:45;13.10;99.90
55173;DHT22;41061;52.822;6.860;2023-05-10T05:24:11;13.00;99.90
55173;DHT22;41061;52.822;6.860;2023-05-10T05:26:38;12.90;99.90
55173;DHT22;41061;52.822;6.860;2023-05-10T05:29:04;12.90;99.90
55173;DHT22;41061;52.822;6.860;2023-05-10T05:31:30;12.90;99.90
55173;DHT22;41061;52.822;6.860;2023-05-10T05:33:56;13.00;99.90
55173;DHT22;41061;52.822;6.860;2023-05-10T05:36:21;12.90;99.90
55173;DHT22;41061;52.822;6.860;2023-05-10T05:38:47;12.90;99.90
55173;DHT22;41061;52.822;6.860;2023-05-10T05:41:13;13.00;99.90
55173;DHT22;41061;52.822;6.860;2023-05-10T05:43:38;12.90;99.90
55173;DHT22;41061;52.822;6.860;2023-05-10T05:46:05;13.00;99.90
55173;DHT22;41061;52.822;6.860;2023-05-10T05:48:31;13.10;99.90
55173;DHT22;41061;52.822;6.860;2023-05-10T05:50:57;13.20;99.90
55173;DHT22;41061;52.822;6.860;2023-05-10T05:53:23;13.00;99.90
55173;DHT22;41061;52.822;6.860;2023-05-10T05:55:54;13.10;99.90
55173;DHT22;41061;52.822;6.860;2023-05-10T05:58:21;13.10;99.90
55173;DHT22;41061;52.822;6.860;2023-05-10T06:00:47;13.10;99.90
55173;DHT22;41061;52.822;6.860;2023-05-10T06:03:13;13.20;99.90
55173;DHT22;41061;52.822;6.860;2023-05-10T06:05:39;13.10;99.90
55173;DHT22;41061;52.822;6.860;2023-05-10T06:08:05;13.20;99.90
55173;DHT22;41061;52.822;6.860;2023-05-10T06:10:30;13.20;99.90
55173;DHT22;41061;52.822;6.860;2023-05-10T06:12:56;13.10;99.90
55173;DHT22;41061;52.822;6.860;2023-05-10T06:15:22;13.10;99.90
55173;DHT22;41061;52.822;6.860;2023-05-10T06:17:47;13.10;99.90
55173;DHT22;41061;52.822;6.860;2023-05-10T06:20:15;13.10;99.90
55173;DHT22;41061;52.822;6.860;2023-05-10T06:22:41;13.10;99.90
55173;DHT22;41061;52.822;6.860;2023-05-10T06:25:08;13.10;99.90
55173;DHT22;41061;52.822;6.860;2023-05-10T06:27:34;13.10;99.90
55173;DHT22;41061;52.822;6.860;2023-05-10T06:29:59;13.00;99.90
55173;DHT22;41061;52.822;6.860;2023-05-10T06:32:25;13.10;99.90
55173;DHT22;41061;52.822;6.860;2023-05-10T06:34:51;13.00;99.90
55173;DHT22;41061;52.822;6.860;2023-05-10T06:37:17;13.10;99.90
55173;DHT22;41061;52.822;6.860;2023-05-10T06:39:43;13.10;99.90
55173;DHT22;41061;52.822;6.860;2023-05-10T06:42:09;13.10;99.90
55173;DHT22;41061;52.822;6.860;2023-05-10T06:44:34;13.10;99.90
55173;DHT22;41061;52.822;6.860;2023-05-10T06:47:00;13.10;99.90
55173;DHT22;41061;52.822;6.860;2023-05-10T06:49:26;13.10;99.90
55173;DHT22;41061;52.822;6.860;2023-05-10T06:51:51;13.10;99.90
55173;DHT22;41061;52.822;6.860;2023-05-10T06:54:17;13.10;99.90
55173;DHT22;41061;52.822;6.860;2023-05-10T06:56:43;13.10;99.90
55173;DHT22;41061;52.822;6.860;2023-05-10T06:59:08;13.10;99.90
55173;DHT22;41061;52.822;6.860;2023-05-10T07:01:34;13.10;99.90
55173;DHT22;41061;52.822;6.860;2023-05-10T07:04:00;13.00;99.90
55173;DHT22;41061;52.822;6.860;2023-05-10T07:06:26;13.10;99.90
55173;DHT22;41061;52.822;6.860;2023-05-10T07:08:52;13.10;99.90
55173;DHT22;41061;52.822;6.860;2023-05-10T07:11:18;13.10;99.90
55173;DHT22;41061;52.822;6.860;2023-05-10T07:13:44;13.20;99.90
55173;DHT22;41061;52.822;6.860;2023-05-10T07:16:11;13.10;99.90
55173;DHT22;41061;52.822;6.860;2023-05-10T07:18:37;13.20;99.90
55173;DHT22;41061;52.822;6.860;2023-05-10T07:21:03;13.20;99.90
55173;DHT22;41061;52.822;6.860;2023-05-10T07:23:29;13.40;99.90
55173;DHT22;41061;52.822;6.860;2023-05-10T07:25:55;13.30;99.90
55173;DHT22;41061;52.822;6.860;2023-05-10T07:28:23;13.40;99.90
55173;DHT22;41061;52.822;6.860;2023-05-10T07:30:49;13.40;99.90
55173;DHT22;41061;52.822;6.860;2023-05-10T07:33:16;13.50;99.90
55173;DHT22;41061;52.822;6.860;2023-05-10T07:35:42;13.40;99.90
55173;DHT22;41061;52.822;6.860;2023-05-10T07:38:08;13.50;99.90
55173;DHT22;41061;52.822;6.860;2023-05-10T07:40:33;13.50;99.90
55173;DHT22;41061;52.822;6.860;2023-05-10T07:42:59;13.60;99.90
55173;DHT22;41061;52.822;6.860;2023-05-10T07:45:28;13.60;99.90
55173;DHT22;41061;52.822;6.860;2023-05-10T07:47:54;13.50;99.90
55173;DHT22;41061;52.822;6.860;2023-05-10T07:50:20;13.60;99.90
55173;DHT22;41061;52.822;6.860;2023-05-10T07:52:47;13.80;99.90
55173;DHT22;41061;52.822;6.860;2023-05-10T07:55:13;13.70;99.90
55173;DHT22;41061;52.822;6.860;2023-05-10T07:57:39;13.80;99.90
55173;DHT22;41061;52.822;6.860;2023-05-10T08:00:06;13.70;99.90
55173;DHT22;41061;52.822;6.860;2023-05-10T08:02:34;13.80;99.90
55173;DHT22;41061;52.822;6.860;2023-05-10T08:05:00;14.00;99.90
55173;DHT22;41061;52.822;6.860;2023-05-10T08:07:26;13.70;99.90
55173;DHT22;41061;52.822;6.860;2023-05-10T08:09:51;13.80;99.90
55173;DHT22;41061;52.822;6.860;2023-05-10T08:12:17;13.90;99.90
55173;DHT22;41061;52.822;6.860;2023-05-10T08:14:43;13.90;99.90
55173;DHT22;41061;52.822;6.860;2023-05-10T08:17:08;14.00;99.90
55173;DHT22;41061;52.822;6.860;2023-05-10T08:19:34;13.90;99.90
55173;DHT22;41061;52.822;6.860;2023-05-10T08:22:00;14.00;99.90
55173;DHT22;41061;52.822;6.860;2023-05-10T08:24:25;14.00;99.90
55173;DHT22;41061;52.822;6.860;2023-05-10T08:26:51;14.00;99.90
55173;DHT22;41061;52.822;6.860;2023-05-10T08:29:17;14.20;99.90
55173;DHT22;41061;52.822;6.860;2023-05-10T08:31:43;14.10;99.90
55173;DHT22;41061;52.822;6.860;2023-05-10T08:34:08;14.10;99.90
55173;DHT22;41061;52.822;6.860;2023-05-10T08:36:34;14.00;99.90
55173;DHT22;41061;52.822;6.860;2023-05-10T08:39:00;14.00;99.90
55173;DHT22;41061;52.822;6.860;2023-05-10T08:41:26;14.10;99.90
55173;DHT22;41061;52.822;6.860;2023-05-10T08:43:55;14.00;99.90
55173;DHT22;41061;52.822;6.860;2023-05-10T08:46:21;14.00;99.90
55173;DHT22;41061;52.822;6.860;2023-05-10T08:48:49;14.00;99.90
55173;DHT22;41061;52.822;6.860;2023-05-10T08:51:18;14.10;99.90
55173;DHT22;41061;52.822;6.860;2023-05-10T08:53:45;14.10;99.90
55173;DHT22;41061;52.822;6.860;2023-05-10T08:56:11;14.20;99.90
55173;DHT22;41061;52.822;6.860;2023-05-10T08:58:38;14.20;99.90
55173;DHT22;41061;52.822;6.860;2023-05-10T09:01:05;14.30;99.90
55173;DHT22;41061;52.822;6.860;2023-05-10T09:03:31;14.40;99.90
55173;DHT22;41061;52.822;6.860;2023-05-10T09:05:57;14.50;99.90
55173;DHT22;41061;52.822;6.860;2023-05-10T09:08:24;14.60;99.90
55173;DHT22;41061;52.822;6.860;2023-05-10T09:10:54;14.70;99.90
55173;DHT22;41061;52.822;6.860;2023-05-10T09:13:22;14.80;99.90
55173;DHT22;41061;52.822;6.860;2023-05-10T09:15:48;14.80;99.90
55173;DHT22;41061;52.822;6.860;2023-05-10T09:18:14;14.80;99.90
55173;DHT22;41061;52.822;6.860;2023-05-10T09:20:40;14.70;99.90
55173;DHT22;41061;52.822;6.860;2023-05-10T09:23:06;14.70;99.90
55173;DHT22;41061;52.822;6.860;2023-05-10T09:25:33;14.60;99.90
55173;DHT22;41061;52.822;6.860;2023-05-10T09:27:59;14.50;99.90
55173;DHT22;41061;52.822;6.860;2023-05-10T09:30:29;14.50;99.90
55173;DHT22;41061;52.822;6.860;2023-05-10T09:32:56;14.40;99.90
55173;DHT22;41061;52.822;6.860;2023-05-10T09:35:24;14.40;99.90
55173;DHT22;41061;52.822;6.860;2023-05-10T09:37:52;14.40;99.90
55173;DHT22;41061;52.822;6.860;2023-05-10T09:40:23;14.40;99.90
55173;DHT22;41061;52.822;6.860;2023-05-10T09:45:18;14.40;99.90
55173;DHT22;41061;52.822;6.860;2023-05-10T09:47:45;14.50;99.90
55173;DHT22;41061;52.822;6.860;2023-05-10T09:50:11;14.60;99.90
55173;DHT22;41061;52.822;6.860;2023-05-10T09:52:57;14.80;99.90
55173;DHT22;41061;52.822;6.860;2023-05-10T09:55:40;15.00;99.90
55173;DHT22;41061;52.822;6.860;2023-05-10T09:58:06;15.30;99.90
55173;DHT22;41061;52.822;6.860;2023-05-10T10:00:37;15.30;99.90
55173;DHT22;41061;52.822;6.860;2023-05-10T10:03:03;15.30;99.90
55173;DHT22;41061;52.822;6.860;2023-05-10T10:05:34;15.20;99.90
55173;DHT22;41061;52.822;6.860;2023-05-10T10:08:04;15.20;99.90
55173;DHT22;41061;52.822;6.860;2023-05-10T10:10:31;15.10;99.90
55173;DHT22;41061;52.822;6.860;2023-05-10T10:12:57;15.00;99.90
55173;DHT22;41061;52.822;6.860;2023-05-10T10:15:24;15.00;99.90
55173;DHT22;41061;52.822;6.860;2023-05-10T10:17:51;14.90;99.90
55173;DHT22;41061;52.822;6.860;2023-05-10T10:20:18;14.90;99.90
55173;DHT22;41061;52.822;6.860;2023-05-10T10:22:44;14.90;99.90
55173;DHT22;41061;52.822;6.860;2023-05-10T10:25:15;15.00;99.90
55173;DHT22;41061;52.822;6.860;2023-05-10T10:30:39;15.10;99.90
55173;DHT22;41061;52.822;6.860;2023-05-10T10:35:54;15.20;99.90
55173;DHT22;41061;52.822;6.860;2023-05-10T10:38:21;15.40;99.90
55173;DHT22;41061;52.822;6.860;2023-05-10T10:40:47;15.40;99.90
55173;DHT22;41061;52.822;6.860;2023-05-10T10:43:24;15.40;99.90
55173;DHT22;41061;52.822;6.860;2023-05-10T10:48:34;15.40;99.90
55173;DHT22;41061;52.822;6.860;2023-05-10T10:51:01;15.40;99.90
55173;DHT22;41061;52.822;6.860;2023-05-10T10:53:27;15.50;99.90
55173;DHT22;41061;52.822;6.860;2023-05-10T10:56:06;15.50;99.90
55173;DHT22;41061;52.822;6.860;2023-05-10T10:58:33;15.60;99.90
55173;DHT22;41061;52.822;6.860;2023-05-10T11:01:15;15.60;99.90
55173;DHT22;41061;52.822;6.860;2023-05-10T11:04:40;15.70;99.90
55173;DHT22;41061;52.822;6.860;2023-05-10T11:06:40;15.70;99.90
55173;DHT22;41061;52.822;6.860;2023-05-10T11:09:09;15.70;99.90
55173;DHT22;41061;52.822;6.860;2023-05-10T11:11:36;15.60;99.90
55173;DHT22;41061;52.822;6.860;2023-05-10T11:14:06;15.60;99.90
55173;DHT22;41061;52.822;6.860;2023-05-10T11:16:50;15.50;99.90
55173;DHT22;41061;52.822;6.860;2023-05-10T11:19:17;15.60;99.90
55173;DHT22;41061;52.822;6.860;2023-05-10T11:21:47;15.70;99.90
55173;DHT22;41061;52.822;6.860;2023-05-10T11:24:15;15.70;99.90
55173;DHT22;41061;52.822;6.860;2023-05-10T11:26:42;15.70;99.90
55173;DHT22;41061;52.822;6.860;2023-05-10T11:29:07;15.70;99.90
55173;DHT22;41061;52.822;6.860;2023-05-10T11:31:33;15.70;99.90
55173;DHT22;41061;52.822;6.860;2023-05-10T11:34:00;15.80;99.90
55173;DHT22;41061;52.822;6.860;2023-05-10T11:36:33;15.80;99.90
55173;DHT22;41061;52.822;6.860;2023-05-10T11:38:59;15.80;99.90
55173;DHT22;41061;52.822;6.860;2023-05-10T11:41:27;15.80;99.90
55173;DHT22;41061;52.822;6.860;2023-05-10T11:43:54;15.90;99.90
55173;DHT22;41061;52.822;6.860;2023-05-10T11:46:24;15.90;99.90
55173;DHT22;41061;52.822;6.860;2023-05-10T11:48:51;15.90;99.90
55173;DHT22;41061;52.822;6.860;2023-05-10T11:51:20;15.90;99.90
55173;DHT22;41061;52.822;6.860;2023-05-10T11:53:46;16.00;99.90
55173;DHT22;41061;52.822;6.860;2023-05-10T11:56:12;15.90;99.90
55173;DHT22;41061;52.822;6.860;2023-05-10T11:58:39;15.90;99.90
55173;DHT22;41061;52.822;6.860;2023-05-10T12:01:07;16.00;99.90
55173;DHT22;41061;52.822;6.860;2023-05-10T12:03:33;16.10;99.90
55173;DHT22;41061;52.822;6.860;2023-05-10T12:06:00;16.10;99.90
55173;DHT22;41061;52.822;6.860;2023-05-10T12:08:27;16.10;99.90
55173;DHT22;41061;52.822;6.860;2023-05-10T12:11:04;16.20;99.90
55173;DHT22;41061;52.822;6.860;2023-05-10T12:13:30;16.20;99.90
55173;DHT22;41061;52.822;6.860;2023-05-10T12:15:59;16.20;99.90
55173;DHT22;41061;52.822;6.860;2023-05-10T12:18:25;16.20;99.90
55173;DHT22;41061;52.822;6.860;2023-05-10T12:20:52;16.20;99.90
55173;DHT22;41061;52.822;6.860;2023-05-10T12:23:20;16.10;99.90
55173;DHT22;41061;52.822;6.860;2023-05-10T12:25:46;16.10;99.90
55173;DHT22;41061;52.822;6.860;2023-05-10T12:28:11;16.10;99.90
55173;DHT22;41061;52.822;6.860;2023-05-10T12:30:38;16.10;99.90
55173;DHT22;41061;52.822;6.860;2023-05-10T12:33:13;16.10;99.90
55173;DHT22;41061;52.822;6.860;2023-05-10T12:38:31;16.10;99.90
55173;DHT22;41061;52.822;6.860;2023-05-10T12:40:58;16.10;99.90
55173;DHT22;41061;52.822;6.860;2023-05-10T12:43:24;16.10;99.90
55173;DHT22;41061;52.822;6.860;2023-05-10T12:45:50;16.10;99.90
55173;DHT22;41061;52.822;6.860;2023-05-10T12:48:16;16.20;99.90
55173;DHT22;41061;52.822;6.860;2023-05-10T12:50:42;16.10;99.90
55173;DHT22;41061;52.822;6.860;2023-05-10T12:53:08;16.10;99.90
55173;DHT22;41061;52.822;6.860;2023-05-10T12:55:34;16.10;99.90
55173;DHT22;41061;52.822;6.860;2023-05-10T12:58:00;16.10;99.90
55173;DHT22;41061;52.822;6.860;2023-05-10T13:00:25;16.20;99.90
55173;DHT22;41061;52.822;6.860;2023-05-10T13:02:51;16.20;99.90
55173;DHT22;41061;52.822;6.860;2023-05-10T13:05:17;16.20;99.90
55173;DHT22;41061;52.822;6.860;2023-05-10T13:07:43;16.20;99.90
55173;DHT22;41061;52.822;6.860;2023-05-10T13:10:09;16.20;99.90
55173;DHT22;41061;52.822;6.860;2023-05-10T13:12:36;16.20;99.90
55173;DHT22;41061;52.822;6.860;2023-05-10T13:15:02;16.20;99.90
55173;DHT22;41061;52.822;6.860;2023-05-10T13:17:28;16.30;99.90
55173;DHT22;41061;52.822;6.860;2023-05-10T13:19:54;16.30;99.90
55173;DHT22;41061;52.822;6.860;2023-05-10T13:22:19;16.40;99.90
55173;DHT22;41061;52.822;6.860;2023-05-10T13:24:45;16.40;99.90
55173;DHT22;41061;52.822;6.860;2023-05-10T13:27:11;16.40;99.90
55173;DHT22;41061;52.822;6.860;2023-05-10T13:29:36;16.40;99.90
55173;DHT22;41061;52.822;6.860;2023-05-10T13:32:02;16.40;99.90
55173;DHT22;41061;52.822;6.860;2023-05-10T13:34:28;16.30;99.90
55173;DHT22;41061;52.822;6.860;2023-05-10T13:36:54;16.30;99.90
55173;DHT22;41061;52.822;6.860;2023-05-10T13:39:21;16.30;99.90
55173;DHT22;41061;52.822;6.860;2023-05-10T13:41:46;16.30;99.90
55173;DHT22;41061;52.822;6.860;2023-05-10T13:44:13;16.30;99.90
55173;DHT22;41061;52.822;6.860;2023-05-10T13:46:40;16.30;99.90
55173;DHT22;41061;52.822;6.860;2023-05-10T13:49:08;16.40;99.90
55173;DHT22;41061;52.822;6.860;2023-05-10T13:51:34;16.40;99.90
55173;DHT22;41061;52.822;6.860;2023-05-10T13:54:01;16.40;99.90
55173;DHT22;41061;52.822;6.860;2023-05-10T13:56:27;16.40;99.90
55173;DHT22;41061;52.822;6.860;2023-05-10T13:58:53;16.40;99.90
55173;DHT22;41061;52.822;6.860;2023-05-10T14:01:18;16.40;99.90
55173;DHT22;41061;52.822;6.860;2023-05-10T14:03:44;16.40;99.90
55173;DHT22;41061;52.822;6.860;2023-05-10T14:06:10;16.30;99.90
55173;DHT22;41061;52.822;6.860;2023-05-10T14:08:36;16.20;99.90
55173;DHT22;41061;52.822;6.860;2023-05-10T14:11:02;16.10;99.90
55173;DHT22;41061;52.822;6.860;2023-05-10T14:13:28;16.10;99.90
55173;DHT22;41061;52.822;6.860;2023-05-10T14:15:54;16.10;99.90
55173;DHT22;41061;52.822;6.860;2023-05-10T14:18:20;16.10;99.90
55173;DHT22;41061;52.822;6.860;2023-05-10T14:20:46;16.10;99.90
55173;DHT22;41061;52.822;6.860;2023-05-10T14:23:12;16.20;99.90
55173;DHT22;41061;52.822;6.860;2023-05-10T14:25:40;16.30;99.90
55173;DHT22;41061;52.822;6.860;2023-05-10T14:28:06;16.30;99.90
55173;DHT22;41061;52.822;6.860;2023-05-10T14:30:32;16.30;99.90
55173;DHT22;41061;52.822;6.860;2023-05-10T14:33:01;16.30;99.90
55173;DHT22;41061;52.822;6.860;2023-05-10T14:35:27;16.30;99.90
55173;DHT22;41061;52.822;6.860;2023-05-10T14:37:53;16.30;99.90
55173;DHT22;41061;52.822;6.860;2023-05-10T14:40:19;16.40;99.90
55173;DHT22;41061;52.822;6.860;2023-05-10T14:42:46;16.40;99.90
55173;DHT22;41061;52.822;6.860;2023-05-10T14:45:15;16.40;99.90
55173;DHT22;41061;52.822;6.860;2023-05-10T14:47:41;16.50;99.90
55173;DHT22;41061;52.822;6.860;2023-05-10T14:50:07;16.50;99.90
55173;DHT22;41061;52.822;6.860;2023-05-10T14:52:33;16.40;99.90
55173;DHT22;41061;52.822;6.860;2023-05-10T14:54:58;16.40;99.90
55173;DHT22;41061;52.822;6.860;2023-05-10T14:57:26;16.40;99.90
55173;DHT22;41061;52.822;6.860;2023-05-10T14:59:51;16.40;99.90
55173;DHT22;41061;52.822;6.860;2023-05-10T15:02:17;16.40;99.90
55173;DHT22;41061;52.822;6.860;2023-05-10T15:04:43;16.30;99.90
55173;DHT22;41061;52.822;6.860;2023-05-10T15:07:08;16.30;99.90
55173;DHT22;41061;52.822;6.860;2023-05-10T15:09:34;16.40;99.90
55173;DHT22;41061;52.822;6.860;2023-05-10T15:12:00;16.40;99.90
55173;DHT22;41061;52.822;6.860;2023-05-10T15:14:26;16.50;99.90
55173;DHT22;41061;52.822;6.860;2023-05-10T15:16:51;16.50;99.90
55173;DHT22;41061;52.822;6.860;2023-05-10T15:19:17;16.50;99.90
55173;DHT22;41061;52.822;6.860;2023-05-10T15:21:42;16.50;99.90
55173;DHT22;41061;52.822;6.860;2023-05-10T15:24:10;16.50;99.90
55173;DHT22;41061;52.822;6.860;2023-05-10T15:26:35;16.50;99.90
55173;DHT22;41061;52.822;6.860;2023-05-10T15:29:01;16.50;99.90
55173;DHT22;41061;52.822;6.860;2023-05-10T15:31:27;16.40;99.90
55173;DHT22;41061;52.822;6.860;2023-05-10T15:33:57;16.30;99.90
55173;DHT22;41061;52.822;6.860;2023-05-10T15:36:24;16.30;99.90
55173;DHT22;41061;52.822;6.860;2023-05-10T15:38:50;16.30;99.90
55173;DHT22;41061;52.822;6.860;2023-05-10T15:41:16;16.30;99.90
55173;DHT22;41061;52.822;6.860;2023-05-10T15:43:42;16.30;99.90
55173;DHT22;41061;52.822;6.860;2023-05-10T15:46:08;16.30;99.90
55173;DHT22;41061;52.822;6.860;2023-05-10T15:48:33;16.20;99.90
55173;DHT22;41061;52.822;6.860;2023-05-10T15:50:59;16.20;99.90
55173;DHT22;41061;52.822;6.860;2023-05-10T15:53:25;16.20;99.90
55173;DHT22;41061;52.822;6.860;2023-05-10T15:55:51;16.30;99.90
55173;DHT22;41061;52.822;6.860;2023-05-10T15:58:17;16.30;99.90
55173;DHT22;41061;52.822;6.860;2023-05-10T16:00:43;16.40;99.90
55173;DHT22;41061;52.822;6.860;2023-05-10T16:03:09;16.40;99.90
55173;DHT22;41061;52.822;6.860;2023-05-10T16:05:34;16.40;99.90
55173;DHT22;41061;52.822;6.860;2023-05-10T16:08:01;16.40;99.90
55173;DHT22;41061;52.822;6.860;2023-05-10T16:10:27;16.30;99.90